sensor_id;sensor_type;location;lat;lon;timestamp;pressure;altitude;pressure_sealevel;temperature;humidity
66703;BME280;60933;46.398;-63.798;2022-12-29T00:01:53;102285.03;;;-4.80;74.21
66703;BME280;60933;46.398;-63.798;2022-12-29T00:04:21;102280.06;;;-4.79;74.70
66703;BME280;60933;46.398;-63.798;2022-12-29T00:06:47;102273.56;;;-4.75;73.80
66703;BME280;60933;46.398;-63.798;2022-12-29T00:09:15;102271.25;;;-4.72;73.43
66703;BME280;60933;46.398;-63.798;2022-12-29T00:11:42;102253.63;;;-4.72;72.68
66703;BME280;60933;46.398;-63.798;2022-12-29T00:14:09;102256.50;;;-4.66;71.95
66703;BME280;60933;46.398;-63.798;2022-12-29T00:16:57;102251.59;;;-4.64;72.84
66703;BME280;60933;46.398;-63.798;2022-12-29T00:19:23;102238.69;;;-4.69;72.85
66703;BME280;60933;46.398;-63.798;2022-12-29T00:22:14;102235.41;;;-4.68;73.55
66703;BME280;60933;46.398;-63.798;2022-12-29T00:24:59;102244.59;;;-4.68;74.44
66703;BME280;60933;46.398;-63.798;2022-12-29T00:27:43;102226.50;;;-4.76;74.17
66703;BME280;60933;46.398;-63.798;2022-12-29T00:30:28;102242.84;;;-4.69;73.54
66703;BME280;60933;46.398;-63.798;2022-12-29T00:33:13;102252.66;;;-4.61;73.61
66703;BME280;60933;46.398;-63.798;2022-12-29T00:38:37;102254.88;;;-4.65;73.91
66703;BME280;60933;46.398;-63.798;2022-12-29T00:41:26;102228.63;;;-4.69;73.11
66703;BME280;60933;46.398;-63.798;2022-12-29T00:44:13;102240.91;;;-4.60;74.19
66703;BME280;60933;46.398;-63.798;2022-12-29T00:46:41;102235.41;;;-4.68;73.44
66703;BME280;60933;46.398;-63.798;2022-12-29T00:49:08;102245.25;;;-4.57;74.05
66703;BME280;60933;46.398;-63.798;2022-12-29T00:51:55;102235.38;;;-4.54;73.73
66703;BME280;60933;46.398;-63.798;2022-12-29T00:54:21;102235.38;;;-4.54;74.20
66703;BME280;60933;46.398;-63.798;2022-12-29T00:56:48;102236.91;;;-4.56;74.50
66703;BME280;60933;46.398;-63.798;2022-12-29T00:59:15;102239.25;;;-4.59;75.21
66703;BME280;60933;46.398;-63.798;2022-12-29T01:01:41;102230.75;;;-4.62;75.08
66703;BME280;60933;46.398;-63.798;2022-12-29T01:04:08;102246.59;;;-4.49;74.34
66703;BME280;60933;46.398;-63.798;2022-12-29T01:06:36;102241.75;;;-4.46;73.72
66703;BME280;60933;46.398;-63.798;2022-12-29T01:09:05;102251.84;;;-4.46;75.12
66703;BME280;60933;46.398;-63.798;2022-12-29T01:11:52;102238.34;;;-4.47;74.61
66703;BME280;60933;46.398;-63.798;2022-12-29T01:14:19;102245.06;;;-4.47;75.93
66703;BME280;60933;46.398;-63.798;2022-12-29T01:16:45;102247.75;;;-4.44;75.26
66703;BME280;60933;46.398;-63.798;2022-12-29T01:19:13;102246.97;;;-4.43;74.82
66703;BME280;60933;46.398;-63.798;2022-12-29T01:21:39;102235.34;;;-4.41;74.90
66703;BME280;60933;46.398;-63.798;2022-12-29T01:24:05;102248.91;;;-4.39;75.72
66703;BME280;60933;46.398;-63.798;2022-12-29T01:26:31;102242.03;;;-4.41;75.43
66703;BME280;60933;46.398;-63.798;2022-12-29T01:28:57;102231.25;;;-4.39;75.18
66703;BME280;60933;46.398;-63.798;2022-12-29T01:31:23;102226.81;;;-4.43;74.70
66703;BME280;60933;46.398;-63.798;2022-12-29T01:33:49;102242.31;;;-4.37;74.94
66703;BME280;60933;46.398;-63.798;2022-12-29T01:36:16;102241.44;;;-4.37;75.62
66703;BME280;60933;46.398;-63.798;2022-12-29T01:38:43;102247.44;;;-4.35;75.44
66703;BME280;60933;46.398;-63.798;2022-12-29T01:41:11;102239.38;;;-4.30;74.73
66703;BME280;60933;46.398;-63.798;2022-12-29T01:43:51;102234.34;;;-4.30;74.50
66703;BME280;60933;46.398;-63.798;2022-12-29T01:51:31;102236.25;;;-4.25;74.82
66703;BME280;60933;46.398;-63.798;2022-12-29T01:53:58;102246.53;;;-4.22;74.77
66703;BME280;60933;46.398;-63.798;2022-12-29T01:56:26;102242.28;;;-4.23;74.42
66703;BME280;60933;46.398;-63.798;2022-12-29T01:59:02;102226.16;;;-4.25;74.10
66703;BME280;60933;46.398;-63.798;2022-12-29T02:01:29;102244.38;;;-4.16;73.59
66703;BME280;60933;46.398;-63.798;2022-12-29T02:03:55;102251.34;;;-4.12;73.40
66703;BME280;60933;46.398;-63.798;2022-12-29T02:06:45;102235.06;;;-4.17;74.70
66703;BME280;60933;46.398;-63.798;2022-12-29T02:09:09;102253.28;;;-4.08;73.48
66703;BME280;60933;46.398;-63.798;2022-12-29T02:11:36;102247.25;;;-4.10;74.07
66703;BME280;60933;46.398;-63.798;2022-12-29T02:14:12;102237.09;;;-4.11;73.54
66703;BME280;60933;46.398;-63.798;2022-12-29T02:31:03;102243.97;;;-4.09;74.45
66703;BME280;60933;46.398;-63.798;2022-12-29T02:33:42;102233.88;;;-4.09;74.77
66703;BME280;60933;46.398;-63.798;2022-12-29T02:36:13;102245.34;;;-4.14;75.99
66703;BME280;60933;46.398;-63.798;2022-12-29T02:39:21;102247.97;;;-4.13;75.96
66703;BME280;60933;46.398;-63.798;2022-12-29T02:41:58;102241.84;;;-4.16;76.35
66703;BME280;60933;46.398;-63.798;2022-12-29T02:47:29;102238.44;;;-4.17;76.76
66703;BME280;60933;46.398;-63.798;2022-12-29T02:50:15;102236.72;;;-4.18;77.59
66703;BME280;60933;46.398;-63.798;2022-12-29T02:52:48;102234.38;;;-4.15;76.58
66703;BME280;60933;46.398;-63.798;2022-12-29T02:55:16;102227.50;;;-4.17;77.57
66703;BME280;60933;46.398;-63.798;2022-12-29T02:57:41;102234.22;;;-4.18;78.10
66703;BME280;60933;46.398;-63.798;2022-12-29T03:00:16;102250.19;;;-4.17;78.08
66703;BME280;60933;46.398;-63.798;2022-12-29T03:11:15;102252.09;;;-4.13;78.75
66703;BME280;60933;46.398;-63.798;2022-12-29T03:20:10;102248.44;;;-4.18;79.21
66703;BME280;60933;46.398;-63.798;2022-12-29T03:22:43;102264.72;;;-4.13;79.43
66703;BME280;60933;46.398;-63.798;2022-12-29T03:25:25;102276.75;;;-4.09;79.80
66703;BME280;60933;46.398;-63.798;2022-12-29T03:28:13;102265.59;;;-4.13;79.47
66703;BME280;60933;46.398;-63.798;2022-12-29T03:30:42;102276.75;;;-4.09;80.14
66703;BME280;60933;46.398;-63.798;2022-12-29T03:33:11;102266.59;;;-4.10;79.82
66703;BME280;60933;46.398;-63.798;2022-12-29T03:35:41;102265.00;;;-4.08;80.53
66703;BME280;60933;46.398;-63.798;2022-12-29T03:38:22;102265.88;;;-4.08;80.56
66703;BME280;60933;46.398;-63.798;2022-12-29T03:40:57;102256.66;;;-4.07;80.69
66703;BME280;60933;46.398;-63.798;2022-12-29T03:43:24;102253.28;;;-4.08;81.07
66703;BME280;60933;46.398;-63.798;2022-12-29T03:45:51;102248.31;;;-4.06;80.74
66703;BME280;60933;46.398;-63.798;2022-12-29T03:48:17;102231.63;;;-4.04;80.01
66703;BME280;60933;46.398;-63.798;2022-12-29T03:50:43;102223.94;;;-4.06;80.73
66703;BME280;60933;46.398;-63.798;2022-12-29T03:53:09;102220.75;;;-4.03;80.55
66703;BME280;60933;46.398;-63.798;2022-12-29T03:55:35;102216.56;;;-4.03;79.76
66703;BME280;60933;46.398;-63.798;2022-12-29T03:58:01;102217.34;;;-4.04;80.25
66703;BME280;60933;46.398;-63.798;2022-12-29T04:00:27;102220.84;;;-4.02;79.97
66703;BME280;60933;46.398;-63.798;2022-12-29T04:02:54;102212.16;;;-4.07;80.05
66703;BME280;60933;46.398;-63.798;2022-12-29T04:05:20;102210.75;;;-4.02;80.16
66703;BME280;60933;46.398;-63.798;2022-12-29T04:07:46;102216.75;;;-4.00;79.86
66703;BME280;60933;46.398;-63.798;2022-12-29T04:10:12;102207.53;;;-3.99;80.10
66703;BME280;60933;46.398;-63.798;2022-12-29T04:12:38;102206.75;;;-3.98;80.33
66703;BME280;60933;46.398;-63.798;2022-12-29T04:15:04;102198.41;;;-3.97;79.73
66703;BME280;60933;46.398;-63.798;2022-12-29T04:17:30;102195.81;;;-3.99;80.11
66703;BME280;60933;46.398;-63.798;2022-12-29T04:19:56;102193.16;;;-4.00;79.86
66703;BME280;60933;46.398;-63.798;2022-12-29T04:22:42;102188.81;;;-4.03;80.10
66703;BME280;60933;46.398;-63.798;2022-12-29T04:25:09;102189.69;;;-4.02;80.83
66703;BME280;60933;46.398;-63.798;2022-12-29T04:27:35;102189.69;;;-4.02;80.72
66703;BME280;60933;46.398;-63.798;2022-12-29T04:30:01;102188.75;;;-4.04;80.93
66703;BME280;60933;46.398;-63.798;2022-12-29T04:32:27;102193.88;;;-4.03;80.83
66703;BME280;60933;46.398;-63.798;2022-12-29T04:34:53;102193.94;;;-4.01;80.77
66703;BME280;60933;46.398;-63.798;2022-12-29T04:37:19;102191.44;;;-4.01;80.73
66703;BME280;60933;46.398;-63.798;2022-12-29T04:39:45;102188.47;;;-4.09;81.00
66703;BME280;60933;46.398;-63.798;2022-12-29T04:42:11;102200.66;;;-4.02;81.01
66703;BME280;60933;46.398;-63.798;2022-12-29T04:44:37;102210.75;;;-4.02;81.79
66703;BME280;60933;46.398;-63.798;2022-12-29T04:47:03;102205.72;;;-4.02;81.36
66703;BME280;60933;46.398;-63.798;2022-12-29T04:49:31;102215.59;;;-4.05;80.95
66703;BME280;60933;46.398;-63.798;2022-12-29T04:51:58;102215.59;;;-4.05;81.40
66703;BME280;60933;46.398;-63.798;2022-12-29T04:54:24;102216.50;;;-4.04;81.42
66703;BME280;60933;46.398;-63.798;2022-12-29T04:56:49;102223.16;;;-4.05;81.13
66703;BME280;60933;46.398;-63.798;2022-12-29T04:59:15;102215.53;;;-4.06;81.44
66703;BME280;60933;46.398;-63.798;2022-12-29T05:01:41;102221.53;;;-4.04;81.36
66703;BME280;60933;46.398;-63.798;2022-12-29T05:04:07;102222.31;;;-4.05;81.18
66703;BME280;60933;46.398;-63.798;2022-12-29T05:06:33;102216.03;;;-4.12;81.43
66703;BME280;60933;46.398;-63.798;2022-12-29T05:08:59;102211.94;;;-4.10;81.58
66703;BME280;60933;46.398;-63.798;2022-12-29T05:11:25;102218.47;;;-4.14;81.68
66703;BME280;60933;46.398;-63.798;2022-12-29T05:13:51;102214.69;;;-4.20;81.86
66703;BME280;60933;46.398;-63.798;2022-12-29T05:16:17;102227.31;;;-4.20;81.95
66703;BME280;60933;46.398;-63.798;2022-12-29T05:18:43;102225.47;;;-4.23;82.29
66703;BME280;60933;46.398;-63.798;2022-12-29T05:21:09;102223.56;;;-4.27;82.39
66703;BME280;60933;46.398;-63.798;2022-12-29T05:23:35;102229.97;;;-4.32;82.78
66703;BME280;60933;46.398;-63.798;2022-12-29T05:26:01;102238.50;;;-4.30;82.26
66703;BME280;60933;46.398;-63.798;2022-12-29T05:28:27;102235.91;;;-4.32;82.59
66703;BME280;60933;46.398;-63.798;2022-12-29T05:30:53;102243.38;;;-4.33;82.72
66703;BME280;60933;46.398;-63.798;2022-12-29T05:33:19;102249.97;;;-4.35;83.14
66703;BME280;60933;46.398;-63.798;2022-12-29T05:35:45;102258.22;;;-4.38;83.33
66703;BME280;60933;46.398;-63.798;2022-12-29T05:38:11;102259.56;;;-4.43;82.69
66703;BME280;60933;46.398;-63.798;2022-12-29T05:40:37;102270.25;;;-4.47;82.48
66703;BME280;60933;46.398;-63.798;2022-12-29T05:43:03;102271.63;;;-4.52;83.06
66703;BME280;60933;46.398;-63.798;2022-12-29T05:45:29;102264.44;;;-4.59;83.19
66703;BME280;60933;46.398;-63.798;2022-12-29T05:47:55;102270.00;;;-4.65;83.24
66703;BME280;60933;46.398;-63.798;2022-12-29T05:50:21;102276.50;;;-4.69;83.11
66703;BME280;60933;46.398;-63.798;2022-12-29T05:52:47;102283.84;;;-4.72;83.38
66703;BME280;60933;46.398;-63.798;2022-12-29T05:55:14;102288.69;;;-4.75;82.78
66703;BME280;60933;46.398;-63.798;2022-12-29T05:57:40;102287.53;;;-4.80;82.62
66703;BME280;60933;46.398;-63.798;2022-12-29T06:00:07;102293.19;;;-4.84;82.91
66703;BME280;60933;46.398;-63.798;2022-12-29T06:02:33;102308.09;;;-4.87;82.95
66703;BME280;60933;46.398;-63.798;2022-12-29T06:04:59;102310.22;;;-4.94;83.03
66703;BME280;60933;46.398;-63.798;2022-12-29T06:07:25;102306.63;;;-4.97;82.83
66703;BME280;60933;46.398;-63.798;2022-12-29T06:09:51;102298.94;;;-5.12;82.93
66703;BME280;60933;46.398;-63.798;2022-12-29T06:12:17;102315.03;;;-5.10;82.57
66703;BME280;60933;46.398;-63.798;2022-12-29T06:14:43;102316.97;;;-5.19;83.04
66703;BME280;60933;46.398;-63.798;2022-12-29T06:17:09;102321.81;;;-5.22;83.25
66703;BME280;60933;46.398;-63.798;2022-12-29T06:19:35;102317.25;;;-5.28;83.14
66703;BME280;60933;46.398;-63.798;2022-12-29T06:22:01;102327.00;;;-5.33;83.44
66703;BME280;60933;46.398;-63.798;2022-12-29T06:24:27;102332.41;;;-5.40;83.38
66703;BME280;60933;46.398;-63.798;2022-12-29T06:26:54;102340.41;;;-5.46;83.80
66703;BME280;60933;46.398;-63.798;2022-12-29T06:29:20;102345.16;;;-5.50;83.79
66703;BME280;60933;46.398;-63.798;2022-12-29T06:31:46;102341.25;;;-5.59;83.72
66703;BME280;60933;46.398;-63.798;2022-12-29T06:34:12;102342.81;;;-5.61;83.67
66703;BME280;60933;46.398;-63.798;2022-12-29T06:36:39;102354.00;;;-5.69;83.66
66703;BME280;60933;46.398;-63.798;2022-12-29T06:39:05;102355.13;;;-5.77;83.83
66703;BME280;60933;46.398;-63.798;2022-12-29T06:41:31;102351.19;;;-5.85;84.30
66703;BME280;60933;46.398;-63.798;2022-12-29T06:43:57;102359.41;;;-5.88;84.10
66703;BME280;60933;46.398;-63.798;2022-12-29T06:46:23;102369.16;;;-5.93;84.27
66703;BME280;60933;46.398;-63.798;2022-12-29T06:48:49;102367.09;;;-5.98;84.20
66703;BME280;60933;46.398;-63.798;2022-12-29T06:51:15;102365.19;;;-6.02;84.43
66703;BME280;60933;46.398;-63.798;2022-12-29T06:53:41;102373.25;;;-6.07;84.21
66703;BME280;60933;46.398;-63.798;2022-12-29T06:56:07;102366.72;;;-6.16;84.44
66703;BME280;60933;46.398;-63.798;2022-12-29T06:58:33;102385.31;;;-6.14;84.21
66703;BME280;60933;46.398;-63.798;2022-12-29T07:00:59;102375.03;;;-6.17;84.20
66703;BME280;60933;46.398;-63.798;2022-12-29T07:03:25;102384.09;;;-6.20;84.13
66703;BME280;60933;46.398;-63.798;2022-12-29T07:05:51;102381.16;;;-6.26;84.22
66703;BME280;60933;46.398;-63.798;2022-12-29T07:08:17;102375.28;;;-6.26;84.46
66703;BME280;60933;46.398;-63.798;2022-12-29T07:10:43;102370.78;;;-6.30;84.33
66703;BME280;60933;46.398;-63.798;2022-12-29T07:13:09;102381.59;;;-6.31;84.23
66703;BME280;60933;46.398;-63.798;2022-12-29T07:15:38;102380.97;;;-6.41;84.32
66703;BME280;60933;46.398;-63.798;2022-12-29T07:18:04;102393.84;;;-6.36;84.61
66703;BME280;60933;46.398;-63.798;2022-12-29T07:20:31;102390.44;;;-6.37;84.83
66703;BME280;60933;46.398;-63.798;2022-12-29T07:22:58;102392.75;;;-6.40;84.33
66703;BME280;60933;46.398;-63.798;2022-12-29T07:25:24;102400.41;;;-6.38;84.72
66703;BME280;60933;46.398;-63.798;2022-12-29T07:27:50;102398.44;;;-6.42;84.50
66703;BME280;60933;46.398;-63.798;2022-12-29T07:30:16;102399.00;;;-6.46;84.72
66703;BME280;60933;46.398;-63.798;2022-12-29T07:32:42;102392.78;;;-6.52;84.76
66703;BME280;60933;46.398;-63.798;2022-12-29T07:35:08;102399.09;;;-6.57;84.51
66703;BME280;60933;46.398;-63.798;2022-12-29T07:37:35;102397.88;;;-6.62;84.28
66703;BME280;60933;46.398;-63.798;2022-12-29T07:40:02;102399.31;;;-6.65;84.34
66703;BME280;60933;46.398;-63.798;2022-12-29T07:42:29;102401.47;;;-6.70;85.07
66703;BME280;60933;46.398;-63.798;2022-12-29T07:44:55;102397.13;;;-6.73;84.71
66703;BME280;60933;46.398;-63.798;2022-12-29T07:47:21;102395.03;;;-6.78;84.54
66703;BME280;60933;46.398;-63.798;2022-12-29T07:49:47;102388.56;;;-6.87;84.45
66703;BME280;60933;46.398;-63.798;2022-12-29T07:52:13;102395.34;;;-6.86;84.49
66703;BME280;60933;46.398;-63.798;2022-12-29T07:54:39;102394.16;;;-6.91;84.78
66703;BME280;60933;46.398;-63.798;2022-12-29T07:57:05;102396.41;;;-6.94;84.66
66703;BME280;60933;46.398;-63.798;2022-12-29T07:59:31;102400.25;;;-6.99;84.47
66703;BME280;60933;46.398;-63.798;2022-12-29T08:01:57;102401.50;;;-7.04;84.40
66703;BME280;60933;46.398;-63.798;2022-12-29T08:04:23;102409.50;;;-7.10;84.69
66703;BME280;60933;46.398;-63.798;2022-12-29T08:06:49;102411.41;;;-7.18;84.76
66703;BME280;60933;46.398;-63.798;2022-12-29T08:09:15;102418.19;;;-7.17;85.11
66703;BME280;60933;46.398;-63.798;2022-12-29T08:11:41;102415.44;;;-7.20;85.29
66703;BME280;60933;46.398;-63.798;2022-12-29T08:14:09;102412.94;;;-7.20;85.10
66703;BME280;60933;46.398;-63.798;2022-12-29T08:16:34;102424.72;;;-7.19;85.57
66703;BME280;60933;46.398;-63.798;2022-12-29T08:19:01;102422.22;;;-7.19;85.26
66703;BME280;60933;46.398;-63.798;2022-12-29T08:21:29;102420.59;;;-7.18;85.46
66703;BME280;60933;46.398;-63.798;2022-12-29T08:23:55;102417.53;;;-7.14;85.45
66703;BME280;60933;46.398;-63.798;2022-12-29T08:26:21;102415.78;;;-7.15;85.67
66703;BME280;60933;46.398;-63.798;2022-12-29T08:28:47;102425.41;;;-7.09;85.80
66703;BME280;60933;46.398;-63.798;2022-12-29T08:31:13;102408.41;;;-7.13;85.70
66703;BME280;60933;46.398;-63.798;2022-12-29T08:33:39;102411.88;;;-7.11;85.94
66703;BME280;60933;46.398;-63.798;2022-12-29T08:36:06;102420.16;;;-7.12;85.62
66703;BME280;60933;46.398;-63.798;2022-12-29T08:38:32;102433.34;;;-7.15;86.08
66703;BME280;60933;46.398;-63.798;2022-12-29T08:40:59;102439.25;;;-7.14;86.09
66703;BME280;60933;46.398;-63.798;2022-12-29T08:43:27;102444.28;;;-7.14;85.83
66703;BME280;60933;46.398;-63.798;2022-12-29T08:45:54;102441.63;;;-7.16;85.80
66703;BME280;60933;46.398;-63.798;2022-12-29T08:48:20;102448.97;;;-7.19;86.31
66703;BME280;60933;46.398;-63.798;2022-12-29T08:50:48;102448.97;;;-7.19;86.16
66703;BME280;60933;46.398;-63.798;2022-12-29T08:53:18;102453.72;;;-7.22;86.21
66703;BME280;60933;46.398;-63.798;2022-12-29T08:55:55;102458.75;;;-7.22;86.02
66703;BME280;60933;46.398;-63.798;2022-12-29T08:58:21;102464.41;;;-7.25;86.15
66703;BME280;60933;46.398;-63.798;2022-12-29T09:00:47;102465.94;;;-7.27;85.99
66703;BME280;60933;46.398;-63.798;2022-12-29T09:03:13;102469.84;;;-7.31;86.03
66703;BME280;60933;46.398;-63.798;2022-12-29T09:05:39;102470.50;;;-7.33;85.95
66703;BME280;60933;46.398;-63.798;2022-12-29T09:08:05;102460.00;;;-7.39;85.71
66703;BME280;60933;46.398;-63.798;2022-12-29T09:10:31;102483.59;;;-7.37;85.73
66703;BME280;60933;46.398;-63.798;2022-12-29T09:12:57;102476.34;;;-7.44;85.72
66703;BME280;60933;46.398;-63.798;2022-12-29T09:15:23;102481.72;;;-7.40;85.38
66703;BME280;60933;46.398;-63.798;2022-12-29T09:17:49;102488.34;;;-7.40;85.79
66703;BME280;60933;46.398;-63.798;2022-12-29T09:20:18;102483.97;;;-7.43;85.85
66703;BME280;60933;46.398;-63.798;2022-12-29T09:22:45;102483.13;;;-7.43;85.39
66703;BME280;60933;46.398;-63.798;2022-12-29T09:25:12;102487.50;;;-7.41;85.23
66703;BME280;60933;46.398;-63.798;2022-12-29T09:27:39;102485.09;;;-7.39;85.22
66703;BME280;60933;46.398;-63.798;2022-12-29T09:30:08;102481.47;;;-7.43;85.32
66703;BME280;60933;46.398;-63.798;2022-12-29T09:32:36;102492.38;;;-7.42;85.18
66703;BME280;60933;46.398;-63.798;2022-12-29T09:35:02;102489.00;;;-7.43;85.25
66703;BME280;60933;46.398;-63.798;2022-12-29T09:37:28;102494.66;;;-7.45;84.77
66703;BME280;60933;46.398;-63.798;2022-12-29T09:39:54;102501.44;;;-7.44;84.71
66703;BME280;60933;46.398;-63.798;2022-12-29T09:42:41;102495.69;;;-7.54;84.59
66703;BME280;60933;46.398;-63.798;2022-12-29T09:47:46;102513.84;;;-7.46;84.94
66703;BME280;60933;46.398;-63.798;2022-12-29T09:53:04;102512.13;;;-7.47;84.42
66703;BME280;60933;46.398;-63.798;2022-12-29T09:55:44;102519.00;;;-7.44;84.86
66703;BME280;60933;46.398;-63.798;2022-12-29T09:58:23;102518.00;;;-7.47;83.99
66703;BME280;60933;46.398;-63.798;2022-12-29T10:07:17;102536.06;;;-7.51;84.24
66703;BME280;60933;46.398;-63.798;2022-12-29T10:09:38;102544.38;;;-7.52;84.32
66703;BME280;60933;46.398;-63.798;2022-12-29T10:12:20;102542.59;;;-7.53;83.77
66703;BME280;60933;46.398;-63.798;2022-12-29T10:20:30;102575.97;;;-7.54;83.91
66703;BME280;60933;46.398;-63.798;2022-12-29T10:25:46;102574.09;;;-7.56;83.77
66703;BME280;60933;46.398;-63.798;2022-12-29T10:28:40;102588.50;;;-7.54;83.83
66703;BME280;60933;46.398;-63.798;2022-12-29T10:31:14;102594.28;;;-7.55;83.86
66703;BME280;60933;46.398;-63.798;2022-12-29T10:33:43;102588.25;;;-7.57;84.35
66703;BME280;60933;46.398;-63.798;2022-12-29T10:41:44;102583.25;;;-7.57;84.17
66703;BME280;60933;46.398;-63.798;2022-12-29T10:44:15;102585.00;;;-7.56;84.45
66703;BME280;60933;46.398;-63.798;2022-12-29T10:46:44;102590.75;;;-7.57;84.78
66703;BME280;60933;46.398;-63.798;2022-12-29T10:49:17;102596.25;;;-7.51;84.94
66703;BME280;60933;46.398;-63.798;2022-12-29T10:51:46;102595.66;;;-7.48;84.69
66703;BME280;60933;46.398;-63.798;2022-12-29T10:54:26;102591.50;;;-7.48;84.92
66703;BME280;60933;46.398;-63.798;2022-12-29T10:56:57;102610.06;;;-7.45;84.85
66703;BME280;60933;46.398;-63.798;2022-12-29T10:59:33;102616.84;;;-7.44;84.76
66703;BME280;60933;46.398;-63.798;2022-12-29T11:07:17;102597.59;;;-7.34;84.70
66703;BME280;60933;46.398;-63.798;2022-12-29T11:09:44;102592.69;;;-7.32;84.55
66703;BME280;60933;46.398;-63.798;2022-12-29T11:12:24;102595.31;;;-7.31;84.51
66703;BME280;60933;46.398;-63.798;2022-12-29T11:17:52;102600.47;;;-7.29;84.23
66703;BME280;60933;46.398;-63.798;2022-12-29T11:20:32;102606.47;;;-7.27;84.43
66703;BME280;60933;46.398;-63.798;2022-12-29T11:23:00;102608.13;;;-7.27;84.19
66703;BME280;60933;46.398;-63.798;2022-12-29T11:25:26;102602.09;;;-7.29;84.44
66703;BME280;60933;46.398;-63.798;2022-12-29T11:28:02;102611.28;;;-7.30;84.06
66703;BME280;60933;46.398;-63.798;2022-12-29T11:30:31;102609.75;;;-7.28;84.04
66703;BME280;60933;46.398;-63.798;2022-12-29T11:32:58;102611.38;;;-7.28;84.15
66703;BME280;60933;46.398;-63.798;2022-12-29T11:35:41;102624.81;;;-7.28;84.14
66703;BME280;60933;46.398;-63.798;2022-12-29T11:38:22;102622.53;;;-7.25;84.55
66703;BME280;60933;46.398;-63.798;2022-12-29T11:40:51;102618.63;;;-7.21;84.09
66703;BME280;60933;46.398;-63.798;2022-12-29T11:43:29;102622.03;;;-7.21;84.13
66703;BME280;60933;46.398;-63.798;2022-12-29T11:45:59;102607.13;;;-7.29;84.19
66703;BME280;60933;46.398;-63.798;2022-12-29T11:48:31;102612.28;;;-7.28;84.53
66703;BME280;60933;46.398;-63.798;2022-12-29T11:50:58;102627.91;;;-7.20;84.08
66703;BME280;60933;46.398;-63.798;2022-12-29T11:53:47;102644.09;;;-7.17;84.17
66703;BME280;60933;46.398;-63.798;2022-12-29T11:56:17;102640.81;;;-7.16;84.50
66703;BME280;60933;46.398;-63.798;2022-12-29T11:58:45;102649.38;;;-7.13;84.14
66703;BME280;60933;46.398;-63.798;2022-12-29T12:06:27;102653.09;;;-7.08;84.24
66703;BME280;60933;46.398;-63.798;2022-12-29T12:08:58;102650.59;;;-7.08;83.83
66703;BME280;60933;46.398;-63.798;2022-12-29T12:11:31;102646.69;;;-7.05;84.11
66703;BME280;60933;46.398;-63.798;2022-12-29T12:16:46;102649.44;;;-7.02;84.23
66703;BME280;60933;46.398;-63.798;2022-12-29T12:21:43;102666.72;;;-6.94;84.09
66703;BME280;60933;46.398;-63.798;2022-12-29T12:27:02;102680.88;;;-6.85;83.87
66703;BME280;60933;46.398;-63.798;2022-12-29T12:34:39;102693.09;;;-6.67;83.72
66703;BME280;60933;46.398;-63.798;2022-12-29T12:40:25;102704.09;;;-6.55;83.77
66703;BME280;60933;46.398;-63.798;2022-12-29T12:43:19;102704.78;;;-6.45;83.51
66703;BME280;60933;46.398;-63.798;2022-12-29T12:54:24;102715.94;;;-6.20;83.03
66703;BME280;60933;46.398;-63.798;2022-12-29T12:57:05;102717.19;;;-6.14;82.95
66703;BME280;60933;46.398;-63.798;2022-12-29T13:02:40;102711.53;;;-6.00;82.22
66703;BME280;60933;46.398;-63.798;2022-12-29T13:19:14;102742.91;;;-5.61;80.57
66703;BME280;60933;46.398;-63.798;2022-12-29T13:21:55;102743.34;;;-5.54;80.42
66703;BME280;60933;46.398;-63.798;2022-12-29T13:30:17;102743.81;;;-5.36;79.36
66703;BME280;60933;46.398;-63.798;2022-12-29T13:35:53;102743.91;;;-5.23;79.13
66703;BME280;60933;46.398;-63.798;2022-12-29T13:38:30;102752.56;;;-5.19;79.06
66703;BME280;60933;46.398;-63.798;2022-12-29T13:41:56;102739.44;;;-5.15;78.10
66703;BME280;60933;46.398;-63.798;2022-12-29T13:44:03;102743.81;;;-5.01;78.20
66703;BME280;60933;46.398;-63.798;2022-12-29T13:46:42;102739.97;;;-4.96;78.22
66703;BME280;60933;46.398;-63.798;2022-12-29T13:49:19;102747.75;;;-4.81;77.55
66703;BME280;60933;46.398;-63.798;2022-12-29T14:00:13;102760.66;;;-4.52;75.84
66703;BME280;60933;46.398;-63.798;2022-12-29T14:07:45;102754.63;;;-4.17;74.91
66703;BME280;60933;46.398;-63.798;2022-12-29T14:10:38;102761.25;;;-4.06;74.57
66703;BME280;60933;46.398;-63.798;2022-12-29T14:13:17;102767.25;;;-3.92;74.02
66703;BME280;60933;46.398;-63.798;2022-12-29T14:15:59;102746.59;;;-3.86;73.80
66703;BME280;60933;46.398;-63.798;2022-12-29T14:18:27;102754.41;;;-3.70;73.49
66703;BME280;60933;46.398;-63.798;2022-12-29T14:21:11;102741.59;;;-3.59;72.66
66703;BME280;60933;46.398;-63.798;2022-12-29T14:23:45;102736.31;;;-3.51;72.49
66703;BME280;60933;46.398;-63.798;2022-12-29T14:26:15;102741.28;;;-3.39;72.50
66703;BME280;60933;46.398;-63.798;2022-12-29T14:28:44;102750.22;;;-3.30;71.75
66703;BME280;60933;46.398;-63.798;2022-12-29T14:36:37;102754.88;;;-3.10;71.31
66703;BME280;60933;46.398;-63.798;2022-12-29T14:39:39;102769.56;;;-3.04;71.03
66703;BME280;60933;46.398;-63.798;2022-12-29T14:44:49;102763.25;;;-2.97;69.44
66703;BME280;60933;46.398;-63.798;2022-12-29T14:50:06;102761.00;;;-2.79;68.16
66703;BME280;60933;46.398;-63.798;2022-12-29T14:52:50;102754.69;;;-2.86;67.60
66703;BME280;60933;46.398;-63.798;2022-12-29T14:55:53;102754.78;;;-2.84;68.19
66703;BME280;60933;46.398;-63.798;2022-12-29T14:58:26;102762.06;;;-2.76;68.20
66703;BME280;60933;46.398;-63.798;2022-12-29T15:00:54;102759.44;;;-2.77;67.19
66703;BME280;60933;46.398;-63.798;2022-12-29T15:03:46;102762.34;;;-2.71;67.72
66703;BME280;60933;46.398;-63.798;2022-12-29T15:06:13;102758.84;;;-2.60;67.50
66703;BME280;60933;46.398;-63.798;2022-12-29T15:11:44;102752.19;;;-2.44;67.58
66703;BME280;60933;46.398;-63.798;2022-12-29T15:14:34;102759.47;;;-2.35;66.78
66703;BME280;60933;46.398;-63.798;2022-12-29T15:17:21;102760.53;;;-2.32;67.36
66703;BME280;60933;46.398;-63.798;2022-12-29T15:19:48;102753.56;;;-2.21;66.90
66703;BME280;60933;46.398;-63.798;2022-12-29T15:22:13;102752.91;;;-2.18;66.36
66703;BME280;60933;46.398;-63.798;2022-12-29T15:24:43;102752.78;;;-2.20;66.32